Time;durP1;ratioP1;P1;durP2;ratioP2;P2;SDS_P1;SDS_P2;PMS_P1;PMS_P2;Temp;Humidity;BMP_temperature;BMP_pressure;BME280_temperature;BME280_humidity;BME280_pressure;Samples;Min_cycle;Max_cycle;Signal;HPM_P1;HPM_P2
2023/01/28 00:02:01;;;;;;;8.07;5.90;;;;;;;;;;5025515;28;20202;-67
2023/01/28 00:04:26;;;;;;;7.50;5.97;;;;;;;;;;5042019;28;20228;-67
2023/01/28 00:06:52;;;;;;;7.40;5.80;;;;;;;;;;5043770;28;20572;-67
2023/01/28 00:09:17;;;;;;;7.30;5.97;;;;;;;;;;5047114;28;20197;-67
2023/01/28 00:11:43;;;;;;;7.90;5.53;;;;;;;;;;5043656;28;20198;-67
2023/01/28 00:14:10;;;;;;;7.30;5.73;;;;;;;;;;5044699;28;20609;-66
2023/01/28 00:16:35;;;;;;;7.10;5.60;;;;;;;;;;5038963;28;20204;-67
2023/01/28 00:19:01;;;;;;;6.23;5.47;;;;;;;;;;5042972;28;20193;-67
2023/01/28 00:21:26;;;;;;;6.73;5.50;;;;;;;;;;5038241;28;20189;-67
2023/01/28 00:23:54;;;;;;;7.47;6.17;;;;;;;;;;5044357;28;20258;-67
2023/01/28 00:26:20;;;;;;;6.97;5.60;;;;;;;;;;5045441;28;20276;-66
2023/01/28 00:28:47;;;;;;;6.70;5.30;;;;;;;;;;5044635;28;20197;-66
2023/01/28 00:31:18;;;;;;;6.60;5.50;;;;;;;;;;5035628;28;20197;-67
2023/01/28 00:33:44;;;;;;;6.80;5.67;;;;;;;;;;5022074;28;20271;-67
2023/01/28 00:36:11;;;;;;;7.97;6.03;;;;;;;;;;5033730;28;20205;-67
2023/01/28 00:38:36;;;;;;;8.00;6.20;;;;;;;;;;5038352;28;20535;-67
2023/01/28 00:41:09;;;;;;;7.27;5.77;;;;;;;;;;5034368;28;20227;-67
2023/01/28 00:43:35;;;;;;;7.27;5.73;;;;;;;;;;5026300;28;20584;-67
2023/01/28 00:46:00;;;;;;;8.77;6.50;;;;;;;;;;5031676;28;20195;-66
2023/01/28 00:48:26;;;;;;;8.57;6.60;;;;;;;;;;5036167;28;20193;-67
2023/01/28 00:50:51;;;;;;;8.10;6.30;;;;;;;;;;5027797;28;20258;-67
2023/01/28 00:53:16;;;;;;;10.03;6.70;;;;;;;;;;5026423;28;20190;-67
2023/01/28 00:55:42;;;;;;;9.07;6.43;;;;;;;;;;5032901;28;20221;-66
2023/01/28 00:58:07;;;;;;;8.27;6.30;;;;;;;;;;5021183;28;20194;-67
2023/01/28 01:00:32;;;;;;;10.00;6.53;;;;;;;;;;5026636;28;20264;-67
2023/01/28 01:02:58;;;;;;;9.67;6.63;;;;;;;;;;5024233;28;20277;-67
2023/01/28 01:05:24;;;;;;;8.73;7.07;;;;;;;;;;5030110;28;20235;-67
2023/01/28 01:07:49;;;;;;;9.83;6.77;;;;;;;;;;5028932;28;20187;-67
2023/01/28 01:10:17;;;;;;;10.03;7.30;;;;;;;;;;5014532;28;20626;-67
2023/01/28 01:12:44;;;;;;;10.83;7.60;;;;;;;;;;5025497;28;20661;-67
2023/01/28 01:15:10;;;;;;;9.83;7.13;;;;;;;;;;5032745;28;20213;-67
2023/01/28 01:17:41;;;;;;;12.77;7.77;;;;;;;;;;5019672;28;20264;-67
2023/01/28 01:20:11;;;;;;;11.17;7.00;;;;;;;;;;5027798;28;20289;-67
2023/01/28 01:22:37;;;;;;;10.03;7.50;;;;;;;;;;5024710;28;20198;-67
2023/01/28 01:25:03;;;;;;;12.00;6.77;;;;;;;;;;5036927;28;20182;-67
2023/01/28 01:27:30;;;;;;;10.10;7.17;;;;;;;;;;5031571;28;20232;-67
2023/01/28 01:29:55;;;;;;;10.17;7.10;;;;;;;;;;5026729;28;20727;-67
2023/01/28 01:32:21;;;;;;;9.43;7.43;;;;;;;;;;5025389;28;20241;-67
2023/01/28 01:34:46;;;;;;;11.73;7.20;;;;;;;;;;5020363;28;20211;-67
2023/01/28 01:37:12;;;;;;;9.63;7.13;;;;;;;;;;5023185;28;20220;-67
2023/01/28 01:39:37;;;;;;;10.03;6.90;;;;;;;;;;5019489;28;20198;-67
2023/01/28 01:42:03;;;;;;;12.97;7.83;;;;;;;;;;5025053;28;20638;-67
2023/01/28 01:44:53;;;;;;;10.07;7.07;;;;;;;;;;5035926;28;20270;-67
2023/01/28 01:47:21;;;;;;;10.27;7.60;;;;;;;;;;5031169;28;20277;-67
2023/01/28 01:49:47;;;;;;;9.20;6.93;;;;;;;;;;5028300;28;20190;-67
2023/01/28 01:52:17;;;;;;;11.63;8.20;;;;;;;;;;5029265;28;20605;-67
2023/01/28 01:54:47;;;;;;;10.27;7.33;;;;;;;;;;5027800;28;20240;-67
2023/01/28 01:57:16;;;;;;;9.60;7.23;;;;;;;;;;5023665;28;20313;-67
2023/01/28 01:59:43;;;;;;;8.67;6.50;;;;;;;;;;5018159;28;20264;-67
2023/01/28 02:02:10;;;;;;;8.80;6.73;;;;;;;;;;5014983;28;20183;-67
2023/01/28 02:04:38;;;;;;;8.60;6.60;;;;;;;;;;5036214;28;20679;-67
2023/01/28 02:07:07;;;;;;;9.93;7.27;;;;;;;;;;5026330;28;20189;-67
2023/01/28 02:09:35;;;;;;;9.77;6.57;;;;;;;;;;5030298;28;20975;-67
2023/01/28 02:12:07;;;;;;;10.37;7.67;;;;;;;;;;5022842;28;20210;-67
2023/01/28 02:14:38;;;;;;;11.33;7.30;;;;;;;;;;5033593;28;20210;-67
2023/01/28 02:17:04;;;;;;;9.80;7.10;;;;;;;;;;5033367;28;20247;-67
2023/01/28 02:19:40;;;;;;;14.00;7.50;;;;;;;;;;5031803;28;20594;-67
2023/01/28 02:22:36;;;;;;;9.90;6.57;;;;;;;;;;5028050;28;20319;-67
2023/01/28 02:25:23;;;;;;;10.07;7.20;;;;;;;;;;5026268;28;20297;-67
2023/01/28 02:28:14;;;;;;;10.13;6.90;;;;;;;;;;5018211;28;20230;-67
2023/01/28 02:30:53;;;;;;;10.63;7.83;;;;;;;;;;5031018;28;20712;-67
2023/01/28 02:33:31;;;;;;;12.37;8.43;;;;;;;;;;5031589;28;20188;-67
2023/01/28 02:36:07;;;;;;;9.70;7.47;;;;;;;;;;5038155;28;20201;-67
2023/01/28 02:38:38;;;;;;;10.97;8.27;;;;;;;;;;5033116;28;20203;-67
2023/01/28 02:41:09;;;;;;;12.10;9.03;;;;;;;;;;5038584;28;20259;-67
2023/01/28 02:43:36;;;;;;;10.93;8.23;;;;;;;;;;5025244;28;20186;-67
2023/01/28 02:49:35;;;;;;;12.23;8.43;;;;;;;;;;5025557;28;20218;-67
2023/01/28 02:52:10;;;;;;;12.83;8.07;;;;;;;;;;5023546;28;20248;-67
2023/01/28 02:54:36;;;;;;;11.53;8.50;;;;;;;;;;5023410;28;20213;-67
2023/01/28 02:57:19;;;;;;;11.70;8.83;;;;;;;;;;5023556;28;20202;-67
2023/01/28 02:59:55;;;;;;;13.80;8.47;;;;;;;;;;5019517;28;20271;-67
2023/01/28 03:02:46;;;;;;;13.53;8.20;;;;;;;;;;5022173;28;20645;-67
2023/01/28 03:06:07;;;;;;;14.40;8.10;;;;;;;;;;5023820;28;20247;-67
2023/01/28 03:36:49;;;;;;;13.43;9.10;;;;;;;;;;5026656;28;20730;-67
2023/01/28 03:39:21;;;;;;;11.87;8.53;;;;;;;;;;5029001;28;20235;-67
2023/01/28 03:42:09;;;;;;;13.00;8.33;;;;;;;;;;5028949;28;20197;-67
2023/01/28 03:44:53;;;;;;;13.83;9.10;;;;;;;;;;5029415;28;20193;-67
2023/01/28 03:47:21;;;;;;;15.13;9.90;;;;;;;;;;5023981;28;20267;-67
2023/01/28 03:49:49;;;;;;;14.63;10.13;;;;;;;;;;5030752;28;20269;-67
2023/01/28 03:52:17;;;;;;;15.57;10.00;;;;;;;;;;5031889;28;20622;-67
2023/01/28 03:54:46;;;;;;;16.40;10.03;;;;;;;;;;5029793;28;20210;-67
2023/01/28 03:57:12;;;;;;;16.63;10.27;;;;;;;;;;5037499;28;20685;-67
2023/01/28 03:59:37;;;;;;;14.93;10.37;;;;;;;;;;5030368;28;20202;-67
2023/01/28 04:02:04;;;;;;;17.27;10.20;;;;;;;;;;5026606;28;20190;-67
2023/01/28 04:04:31;;;;;;;14.83;9.90;;;;;;;;;;5028025;28;20296;-67
2023/01/28 04:06:57;;;;;;;16.03;9.87;;;;;;;;;;5026114;28;20579;-67
2023/01/28 04:09:22;;;;;;;14.70;10.00;;;;;;;;;;5031112;28;20213;-67
2023/01/28 04:11:49;;;;;;;15.23;10.70;;;;;;;;;;5027018;28;20658;-67
2023/01/28 04:14:15;;;;;;;18.17;10.33;;;;;;;;;;5026030;28;20294;-67
2023/01/28 04:16:41;;;;;;;14.57;9.63;;;;;;;;;;5033945;28;20218;-67
2023/01/28 04:19:07;;;;;;;15.97;10.23;;;;;;;;;;5025112;28;20229;-67
2023/01/28 04:21:33;;;;;;;13.77;9.67;;;;;;;;;;5031776;28;20190;-67
2023/01/28 04:23:59;;;;;;;16.07;10.53;;;;;;;;;;5028337;28;20700;-67
2023/01/28 04:26:24;;;;;;;15.73;10.30;;;;;;;;;;5030309;28;20205;-66
2023/01/28 04:28:49;;;;;;;18.43;10.27;;;;;;;;;;5034212;28;20248;-67
2023/01/28 04:31:15;;;;;;;14.60;10.63;;;;;;;;;;5033254;28;20197;-67
2023/01/28 04:33:40;;;;;;;16.83;10.50;;;;;;;;;;5018603;28;20276;-67
2023/01/28 04:36:06;;;;;;;15.87;10.97;;;;;;;;;;5031735;28;20186;-67
2023/01/28 04:38:31;;;;;;;16.50;9.77;;;;;;;;;;5035107;28;20190;-67
2023/01/28 04:40:56;;;;;;;15.33;10.23;;;;;;;;;;5029596;28;20255;-67
2023/01/28 04:43:22;;;;;;;16.47;10.00;;;;;;;;;;5031990;28;20670;-67
2023/01/28 04:45:48;;;;;;;16.83;10.90;;;;;;;;;;5032422;28;20190;-67
2023/01/28 04:48:15;;;;;;;16.63;10.93;;;;;;;;;;5016904;28;20297;-67
2023/01/28 04:50:41;;;;;;;13.57;10.43;;;;;;;;;;5029958;28;20279;-67
2023/01/28 04:53:06;;;;;;;17.97;10.87;;;;;;;;;;5031646;28;20623;-66
2023/01/28 04:55:32;;;;;;;16.53;11.00;;;;;;;;;;5029056;28;20236;-67
2023/01/28 04:57:57;;;;;;;15.50;10.80;;;;;;;;;;5031568;28;20201;-66
2023/01/28 05:00:23;;;;;;;15.67;11.20;;;;;;;;;;5026962;28;20206;-66
2023/01/28 05:02:48;;;;;;;16.40;11.30;;;;;;;;;;5029330;28;20194;-66
2023/01/28 05:05:14;;;;;;;15.17;10.47;;;;;;;;;;5026749;28;20193;-66
2023/01/28 05:07:39;;;;;;;17.47;11.23;;;;;;;;;;5029055;28;20679;-66
2023/01/28 05:10:05;;;;;;;16.63;11.33;;;;;;;;;;5026892;28;20750;-66
2023/01/28 05:12:32;;;;;;;16.43;11.63;;;;;;;;;;5026997;28;20190;-66
2023/01/28 05:15:01;;;;;;;15.03;10.97;;;;;;;;;;5026552;28;20218;-67
2023/01/28 05:17:27;;;;;;;16.40;12.00;;;;;;;;;;5026111;28;20195;-66
2023/01/28 05:19:53;;;;;;;17.13;12.40;;;;;;;;;;5039617;28;20201;-66
2023/01/28 05:22:18;;;;;;;16.40;11.63;;;;;;;;;;5038450;28;20204;-66
2023/01/28 05:24:43;;;;;;;19.00;12.33;;;;;;;;;;5037763;28;20649;-66
2023/01/28 05:27:09;;;;;;;14.27;11.37;;;;;;;;;;5029205;28;20328;-67
2023/01/28 05:29:34;;;;;;;15.33;11.23;;;;;;;;;;5039795;28;20239;-67
2023/01/28 05:32:00;;;;;;;15.50;11.87;;;;;;;;;;5037382;28;20211;-67
2023/01/28 05:34:25;;;;;;;17.23;12.03;;;;;;;;;;5030526;28;20286;-67
2023/01/28 05:36:50;;;;;;;14.93;11.33;;;;;;;;;;5035337;28;20233;-67
2023/01/28 05:39:16;;;;;;;17.43;11.63;;;;;;;;;;5029731;28;20281;-67
2023/01/28 05:41:41;;;;;;;15.93;11.27;;;;;;;;;;5028903;28;20186;-67
2023/01/28 05:44:07;;;;;;;17.10;11.60;;;;;;;;;;5033431;28;20194;-67
2023/01/28 05:46:32;;;;;;;15.80;11.27;;;;;;;;;;5028702;28;20244;-67
2023/01/28 05:48:58;;;;;;;15.90;12.00;;;;;;;;;;5022808;28;20190;-67
2023/01/28 05:51:23;;;;;;;15.40;11.53;;;;;;;;;;5030246;28;20656;-67
2023/01/28 05:53:48;;;;;;;17.47;11.77;;;;;;;;;;5020705;28;20195;-67
2023/01/28 05:56:14;;;;;;;14.53;11.73;;;;;;;;;;5032756;28;20720;-67
2023/01/28 05:58:39;;;;;;;15.30;11.90;;;;;;;;;;5034979;28;20189;-67
2023/01/28 06:01:04;;;;;;;14.23;11.57;;;;;;;;;;5032462;28;20224;-67
2023/01/28 06:03:30;;;;;;;16.77;11.47;;;;;;;;;;5025002;28;20190;-67
2023/01/28 06:05:55;;;;;;;15.87;11.63;;;;;;;;;;5028007;28;20571;-67
2023/01/28 06:08:21;;;;;;;16.90;12.33;;;;;;;;;;5029490;28;20194;-67
2023/01/28 06:10:46;;;;;;;16.57;12.17;;;;;;;;;;5026596;28;20208;-67
2023/01/28 06:13:11;;;;;;;15.60;11.83;;;;;;;;;;5031633;28;20197;-66
2023/01/28 06:15:37;;;;;;;15.83;12.00;;;;;;;;;;5015845;28;20297;-66
2023/01/28 06:18:02;;;;;;;15.40;11.83;;;;;;;;;;5027289;28;20198;-66
2023/01/28 06:20:28;;;;;;;15.47;12.40;;;;;;;;;;5028088;28;20209;-67
2023/01/28 06:22:53;;;;;;;16.03;12.53;;;;;;;;;;5034921;28;20187;-66
2023/01/28 06:25:19;;;;;;;14.90;11.67;;;;;;;;;;5022479;28;20191;-67
2023/01/28 06:27:45;;;;;;;13.83;11.67;;;;;;;;;;5024752;28;20228;-67
2023/01/28 06:30:10;;;;;;;14.57;11.63;;;;;;;;;;5034627;28;20653;-67
2023/01/28 06:32:36;;;;;;;12.60;11.30;;;;;;;;;;5032322;28;20186;-67
2023/01/28 06:35:02;;;;;;;14.43;11.73;;;;;;;;;;5028725;28;20294;-66
2023/01/28 06:37:27;;;;;;;15.33;11.73;;;;;;;;;;5034607;28;20194;-67
2023/01/28 06:39:53;;;;;;;18.13;11.63;;;;;;;;;;5027840;28;20623;-66
2023/01/28 06:42:18;;;;;;;13.50;11.53;;;;;;;;;;5039429;28;20272;-67
2023/01/28 06:44:43;;;;;;;14.10;11.27;;;;;;;;;;5020925;28;20283;-67
2023/01/28 06:47:09;;;;;;;14.87;12.07;;;;;;;;;;5034750;28;20205;-66
2023/01/28 06:49:38;;;;;;;15.20;12.10;;;;;;;;;;5023809;28;20186;-66
2023/01/28 06:52:03;;;;;;;14.33;11.27;;;;;;;;;;5026828;28;20198;-67
2023/01/28 06:54:29;;;;;;;14.17;11.53;;;;;;;;;;5037545;28;20257;-66
2023/01/28 06:56:54;;;;;;;13.97;12.43;;;;;;;;;;5040169;28;20198;-67
2023/01/28 06:59:20;;;;;;;12.43;11.03;;;;;;;;;;5039704;28;20617;-66
2023/01/28 07:01:45;;;;;;;12.50;11.10;;;;;;;;;;5044472;28;20198;-66
2023/01/28 07:04:11;;;;;;;13.23;11.23;;;;;;;;;;5041838;28;20189;-67
2023/01/28 07:06:36;;;;;;;13.37;11.30;;;;;;;;;;5028718;28;20632;-66
2023/01/28 07:09:02;;;;;;;15.13;11.50;;;;;;;;;;5040358;28;20235;-66
2023/01/28 07:11:27;;;;;;;13.90;11.07;;;;;;;;;;5037081;28;20193;-66
2023/01/28 07:13:52;;;;;;;12.40;11.07;;;;;;;;;;5029565;28;20229;-65
2023/01/28 07:16:18;;;;;;;13.30;11.67;;;;;;;;;;5025230;28;20199;-66
2023/01/28 07:18:43;;;;;;;14.53;11.57;;;;;;;;;;5036596;28;20562;-66
2023/01/28 07:21:08;;;;;;;14.23;11.70;;;;;;;;;;5025715;28;20626;-67
2023/01/28 07:23:34;;;;;;;14.43;11.33;;;;;;;;;;5031762;28;20190;-67
2023/01/28 07:26:01;;;;;;;14.07;11.07;;;;;;;;;;5036646;28;20193;-66
2023/01/28 07:28:26;;;;;;;13.53;10.50;;;;;;;;;;5027807;28;20753;-66
2023/01/28 07:30:52;;;;;;;12.20;9.07;;;;;;;;;;5026932;28;20281;-66
2023/01/28 07:33:18;;;;;;;10.77;9.03;;;;;;;;;;5025254;28;20182;-66
2023/01/28 07:35:44;;;;;;;10.43;8.60;;;;;;;;;;5034783;28;20711;-67
2023/01/28 07:38:10;;;;;;;11.70;8.97;;;;;;;;;;5038136;28;20273;-67
2023/01/28 07:40:36;;;;;;;11.70;8.80;;;;;;;;;;5046289;28;20268;-66
2023/01/28 07:43:01;;;;;;;10.83;8.93;;;;;;;;;;5045481;28;20276;-68
2023/01/28 07:45:29;;;;;;;10.60;8.57;;;;;;;;;;5038653;28;20224;-67
2023/01/28 07:48:03;;;;;;;11.80;8.37;;;;;;;;;;5045373;28;20634;-66
2023/01/28 07:50:31;;;;;;;9.77;8.33;;;;;;;;;;5044997;28;20190;-67
2023/01/28 07:52:56;;;;;;;9.90;8.10;;;;;;;;;;5047009;28;20190;-66
2023/01/28 07:55:23;;;;;;;12.27;8.73;;;;;;;;;;5021676;28;20225;-66
2023/01/28 07:57:53;;;;;;;9.53;8.00;;;;;;;;;;5027757;28;20411;-66
2023/01/28 08:00:21;;;;;;;10.40;8.20;;;;;;;;;;5023593;28;20211;-66
2023/01/28 08:02:47;;;;;;;11.03;8.13;;;;;;;;;;5037155;28;20303;-66
2023/01/28 08:05:19;;;;;;;9.83;8.33;;;;;;;;;;5041174;28;20671;-66
2023/01/28 08:07:47;;;;;;;12.73;7.90;;;;;;;;;;5047465;28;20196;-66
2023/01/28 08:10:13;;;;;;;12.17;8.33;;;;;;;;;;5043048;28;20277;-66
2023/01/28 08:12:39;;;;;;;11.50;7.80;;;;;;;;;;5039634;28;20303;-66
2023/01/28 08:15:05;;;;;;;9.30;7.73;;;;;;;;;;5041043;28;20639;-67
2023/01/28 08:17:31;;;;;;;9.73;8.13;;;;;;;;;;5043723;28;20411;-66
2023/01/28 08:19:56;;;;;;;10.73;7.47;;;;;;;;;;5028791;28;20357;-67
2023/01/28 08:22:25;;;;;;;12.20;7.77;;;;;;;;;;5037735;28;20190;-66
2023/01/28 08:24:51;;;;;;;10.53;7.67;;;;;;;;;;5045481;28;20326;-67
2023/01/28 08:27:16;;;;;;;12.73;8.13;;;;;;;;;;5046003;28;20411;-67
2023/01/28 08:29:42;;;;;;;8.87;7.97;;;;;;;;;;5039318;28;20186;-66
2023/01/28 08:32:08;;;;;;;14.50;7.83;;;;;;;;;;5043684;28;20596;-67
2023/01/28 08:34:34;;;;;;;10.27;8.30;;;;;;;;;;5042664;28;20339;-67
2023/01/28 08:36:59;;;;;;;11.80;8.67;;;;;;;;;;5046781;28;20267;-66
2023/01/28 08:39:24;;;;;;;10.57;8.97;;;;;;;;;;5041285;28;20201;-66
2023/01/28 08:41:50;;;;;;;11.80;9.17;;;;;;;;;;5046693;28;20198;-66
2023/01/28 08:44:15;;;;;;;10.90;9.50;;;;;;;;;;5041798;28;20505;-67
2023/01/28 08:46:41;;;;;;;10.83;9.10;;;;;;;;;;5043432;28;20190;-67
2023/01/28 08:49:06;;;;;;;12.17;9.67;;;;;;;;;;5044804;28;20199;-66
2023/01/28 08:51:31;;;;;;;10.40;9.07;;;;;;;;;;5041145;28;20178;-66
2023/01/28 08:53:57;;;;;;;12.97;9.77;;;;;;;;;;5040843;28;20217;-67
2023/01/28 08:56:22;;;;;;;13.27;10.07;;;;;;;;;;5041576;28;20768;-66
2023/01/28 08:58:48;;;;;;;13.47;9.97;;;;;;;;;;5040414;28;20214;-67
2023/01/28 09:01:13;;;;;;;11.70;9.50;;;;;;;;;;5038565;28;20221;-66
2023/01/28 09:03:38;;;;;;;14.43;10.13;;;;;;;;;;5040633;28;20197;-67
2023/01/28 09:06:04;;;;;;;13.27;10.40;;;;;;;;;;5044767;28;20216;-66
2023/01/28 09:08:30;;;;;;;12.60;9.97;;;;;;;;;;5041160;28;20224;-67
2023/01/28 09:10:56;;;;;;;14.10;10.30;;;;;;;;;;5041520;28;20212;-67
2023/01/28 09:13:22;;;;;;;13.70;10.20;;;;;;;;;;5045573;28;20531;-66
2023/01/28 09:15:48;;;;;;;14.37;10.93;;;;;;;;;;5039434;28;20283;-67
2023/01/28 09:18:13;;;;;;;13.83;10.17;;;;;;;;;;5044315;28;20204;-66
2023/01/28 09:20:39;;;;;;;13.93;10.77;;;;;;;;;;5040237;28;20249;-68
2023/01/28 09:23:05;;;;;;;13.53;10.20;;;;;;;;;;5043799;28;20181;-66
2023/01/28 09:25:31;;;;;;;13.97;10.33;;;;;;;;;;5039048;28;20611;-67
2023/01/28 09:27:56;;;;;;;13.10;10.33;;;;;;;;;;5039125;28;20645;-67
2023/01/28 09:30:22;;;;;;;12.77;10.10;;;;;;;;;;5042344;28;20353;-67
2023/01/28 09:32:51;;;;;;;12.10;9.37;;;;;;;;;;5040203;28;20279;-67
2023/01/28 09:35:17;;;;;;;13.27;9.83;;;;;;;;;;5041221;28;20550;-67
2023/01/28 09:37:42;;;;;;;14.37;10.70;;;;;;;;;;5040769;28;20192;-67
2023/01/28 09:40:24;;;;;;;12.43;9.97;;;;;;;;;;5034462;28;20250;-67
2023/01/28 09:43:02;;;;;;;15.37;10.83;;;;;;;;;;5033689;28;20216;-66
2023/01/28 09:45:51;;;;;;;13.73;10.10;;;;;;;;;;5037704;28;20260;-66
2023/01/28 09:48:21;;;;;;;13.40;9.70;;;;;;;;;;5037649;28;20334;-66
2023/01/28 09:50:50;;;;;;;12.07;9.50;;;;;;;;;;5044773;28;20248;-67
2023/01/28 09:53:24;;;;;;;12.00;9.57;;;;;;;;;;5036193;28;20714;-67
2023/01/28 09:55:59;;;;;;;13.30;10.00;;;;;;;;;;5038561;28;20271;-66
2023/01/28 09:58:24;;;;;;;14.47;10.00;;;;;;;;;;5041106;28;20246;-67
2023/01/28 10:01:14;;;;;;;12.97;10.60;;;;;;;;;;5041342;28;20284;-67
2023/01/28 10:04:00;;;;;;;14.77;11.10;;;;;;;;;;5035270;28;20238;-67
2023/01/28 10:06:46;;;;;;;15.00;10.63;;;;;;;;;;5034083;28;20283;-67
2023/01/28 10:09:41;;;;;;;14.43;11.03;;;;;;;;;;5038656;28;20177;-67
2023/01/28 10:12:36;;;;;;;15.43;10.83;;;;;;;;;;5039715;28;20192;-67
2023/01/28 10:15:28;;;;;;;14.83;10.83;;;;;;;;;;5043336;28;20217;-66
2023/01/28 10:18:00;;;;;;;15.03;11.17;;;;;;;;;;5042253;28;20221;-67
2023/01/28 10:20:34;;;;;;;15.63;11.07;;;;;;;;;;5039739;28;20212;-67
2023/01/28 10:23:23;;;;;;;16.17;10.73;;;;;;;;;;5042613;28;20193;-67
2023/01/28 10:25:49;;;;;;;14.43;10.47;;;;;;;;;;5038528;28;20198;-66
2023/01/28 10:28:21;;;;;;;16.67;11.47;;;;;;;;;;5031541;28;20256;-67
2023/01/28 10:30:48;;;;;;;15.03;11.00;;;;;;;;;;5041825;28;20213;-67
2023/01/28 10:33:26;;;;;;;17.77;11.83;;;;;;;;;;5041424;28;20228;-67
2023/01/28 10:35:52;;;;;;;17.93;11.17;;;;;;;;;;5034669;28;20225;-67
2023/01/28 10:38:20;;;;;;;13.90;10.47;;;;;;;;;;5038488;28;20201;-67
2023/01/28 10:40:49;;;;;;;16.20;10.80;;;;;;;;;;5042118;28;20198;-67
2023/01/28 10:43:18;;;;;;;17.07;11.10;;;;;;;;;;5033521;28;20201;-67
2023/01/28 10:46:02;;;;;;;16.17;11.33;;;;;;;;;;5024196;28;20240;-67
2023/01/28 10:48:59;;;;;;;15.83;10.53;;;;;;;;;;5033655;28;20205;-66
2023/01/28 10:51:37;;;;;;;15.13;10.63;;;;;;;;;;5023888;28;20186;-66
2023/01/28 10:54:16;;;;;;;14.33;10.07;;;;;;;;;;5030096;28;20384;-66
2023/01/28 10:56:42;;;;;;;15.53;10.87;;;;;;;;;;5036254;28;20669;-66
2023/01/28 10:59:28;;;;;;;16.13;10.47;;;;;;;;;;5035428;28;20273;-67
2023/01/28 11:01:59;;;;;;;13.67;9.87;;;;;;;;;;5039154;28;20197;-67
2023/01/28 11:04:29;;;;;;;12.77;9.50;;;;;;;;;;5043840;28;20186;-67
2023/01/28 11:07:05;;;;;;;17.27;9.70;;;;;;;;;;5043232;28;20194;-68
2023/01/28 11:09:33;;;;;;;17.90;10.40;;;;;;;;;;5039073;28;20189;-66
2023/01/28 11:12:10;;;;;;;13.87;10.03;;;;;;;;;;5038018;28;20644;-67
2023/01/28 11:14:36;;;;;;;14.53;10.50;;;;;;;;;;5041763;28;20535;-67
2023/01/28 11:17:01;;;;;;;15.40;10.13;;;;;;;;;;5039930;28;20190;-67
2023/01/28 11:19:33;;;;;;;16.63;10.57;;;;;;;;;;5039921;28;20668;-67
2023/01/28 11:21:59;;;;;;;14.73;11.03;;;;;;;;;;5038197;28;20529;-66
2023/01/28 11:24:30;;;;;;;13.80;10.50;;;;;;;;;;5042229;28;20216;-66
2023/01/28 11:26:58;;;;;;;12.17;9.73;;;;;;;;;;5037610;28;20287;-67
2023/01/28 11:29:33;;;;;;;13.97;10.37;;;;;;;;;;5043931;28;20220;-67
2023/01/28 11:31:59;;;;;;;12.73;9.73;;;;;;;;;;5036929;28;20189;-67
2023/01/28 11:34:28;;;;;;;15.97;10.53;;;;;;;;;;5039904;28;20603;-66
2023/01/28 11:37:17;;;;;;;14.90;10.57;;;;;;;;;;5042251;28;20239;-66
2023/01/28 11:39:43;;;;;;;15.23;10.50;;;;;;;;;;5043636;28;20268;-68
2023/01/28 11:42:14;;;;;;;13.73;10.53;;;;;;;;;;5044381;28;20268;-66
2023/01/28 11:44:40;;;;;;;15.37;10.63;;;;;;;;;;5040075;28;20217;-66
2023/01/28 11:47:31;;;;;;;15.20;10.30;;;;;;;;;;5041272;28;20950;-66
2023/01/28 11:50:38;;;;;;;14.63;9.63;;;;;;;;;;5040184;28;20563;-67
2023/01/28 11:53:28;;;;;;;15.63;10.80;;;;;;;;;;5039503;28;20206;-66
2023/01/28 11:56:09;;;;;;;13.87;9.77;;;;;;;;;;5043567;28;20221;-67
2023/01/28 11:58:52;;;;;;;14.20;9.53;;;;;;;;;;5044337;28;20580;-66
2023/01/28 12:01:34;;;;;;;13.63;8.97;;;;;;;;;;5044338;28;20209;-67
2023/01/28 12:04:18;;;;;;;12.97;9.07;;;;;;;;;;5041154;28;20185;-66
2023/01/28 12:07:25;;;;;;;12.57;8.50;;;;;;;;;;5042201;28;20263;-67
2023/01/28 12:10:08;;;;;;;14.00;8.30;;;;;;;;;;5044792;28;20232;-67
2023/01/28 12:12:55;;;;;;;14.77;8.63;;;;;;;;;;5044471;28;20211;-67
2023/01/28 12:16:15;;;;;;;13.67;8.83;;;;;;;;;;5041030;28;20232;-66
2023/01/28 12:19:02;;;;;;;13.50;8.87;;;;;;;;;;5033441;28;20204;-67
2023/01/28 12:21:59;;;;;;;11.60;8.40;;;;;;;;;;5044558;28;20722;-67
2023/01/28 12:24:54;;;;;;;12.13;8.73;;;;;;;;;;5044221;28;20277;-66
2023/01/28 12:27:44;;;;;;;13.17;8.53;;;;;;;;;;5039368;28;20253;-66
2023/01/28 12:30:13;;;;;;;13.40;9.10;;;;;;;;;;5039776;28;20197;-66
2023/01/28 12:33:29;;;;;;;11.33;8.47;;;;;;;;;;5038199;28;20553;-66
2023/01/28 12:36:25;;;;;;;11.13;8.40;;;;;;;;;;5021491;28;20256;-66
2023/01/28 12:39:19;;;;;;;11.90;7.87;;;;;;;;;;5020098;28;20200;-66
2023/01/28 12:42:04;;;;;;;12.30;7.93;;;;;;;;;;5042311;28;20274;-66
2023/01/28 12:44:37;;;;;;;11.37;7.90;;;;;;;;;;5046076;28;20825;-66
2023/01/28 12:47:11;;;;;;;12.03;8.60;;;;;;;;;;5032456;28;20182;-66
2023/01/28 12:49:39;;;;;;;12.47;8.50;;;;;;;;;;5041435;28;20756;-66
2023/01/28 12:52:17;;;;;;;13.63;8.93;;;;;;;;;;5040249;28;20189;-66
2023/01/28 12:54:56;;;;;;;13.03;8.70;;;;;;;;;;5044311;28;20224;-66
2023/01/28 12:57:25;;;;;;;14.80;8.67;;;;;;;;;;5046021;28;20193;-67
2023/01/28 13:00:00;;;;;;;14.67;8.80;;;;;;;;;;5045945;28;20206;-67
2023/01/28 13:02:30;;;;;;;11.87;8.60;;;;;;;;;;5040038;28;20215;-67
2023/01/28 13:05:02;;;;;;;16.03;9.90;;;;;;;;;;5030917;28;20195;-67
2023/01/28 13:07:38;;;;;;;14.63;9.03;;;;;;;;;;5025381;28;20186;-67
2023/01/28 13:10:20;;;;;;;12.17;8.53;;;;;;;;;;5039706;28;20262;-67
2023/01/28 13:12:47;;;;;;;14.13;8.73;;;;;;;;;;5036322;28;20260;-67
2023/01/28 13:15:15;;;;;;;12.23;7.93;;;;;;;;;;5029031;28;20214;-67
2023/01/28 13:17:53;;;;;;;11.10;7.73;;;;;;;;;;5045112;28;20185;-67
2023/01/28 13:20:45;;;;;;;13.97;9.10;;;;;;;;;;5039903;28;20196;-68
2023/01/28 13:23:29;;;;;;;16.20;8.90;;;;;;;;;;5040473;28;20189;-67
2023/01/28 13:25:55;;;;;;;13.23;8.23;;;;;;;;;;5039585;28;20537;-67
2023/01/28 13:28:29;;;;;;;14.47;9.40;;;;;;;;;;5047651;28;20283;-67
2023/01/28 13:31:12;;;;;;;12.17;8.47;;;;;;;;;;5023259;28;20273;-67
2023/01/28 13:33:40;;;;;;;13.90;9.10;;;;;;;;;;5037575;28;20194;-67
2023/01/28 13:36:24;;;;;;;11.97;8.50;;;;;;;;;;5033877;28;20218;-67
2023/01/28 13:39:13;;;;;;;11.17;8.00;;;;;;;;;;5035118;28;20266;-67
2023/01/28 13:41:51;;;;;;;12.03;8.60;;;;;;;;;;5034712;28;20189;-67
2023/01/28 13:44:31;;;;;;;13.83;8.57;;;;;;;;;;5038493;28;20173;-67
2023/01/28 13:47:33;;;;;;;11.17;7.90;;;;;;;;;;5040494;28;20715;-67
2023/01/28 13:49:58;;;;;;;13.30;8.27;;;;;;;;;;5040131;28;20195;-67
2023/01/28 13:52:35;;;;;;;12.97;8.10;;;;;;;;;;5043070;28;20308;-67
2023/01/28 13:55:13;;;;;;;13.10;8.50;;;;;;;;;;5034277;28;20517;-67
2023/01/28 13:58:03;;;;;;;12.03;7.80;;;;;;;;;;4339212;28;10000762;-67
2023/01/28 14:00:55;;;;;;;11.97;7.30;;;;;;;;;;5033686;28;20464;-67
2023/01/28 14:03:53;;;;;;;11.20;7.40;;;;;;;;;;5021516;28;20304;-67
2023/01/28 14:06:50;;;;;;;11.63;7.83;;;;;;;;;;5029504;28;20186;-67
2023/01/28 14:09:35;;;;;;;12.23;8.27;;;;;;;;;;5035654;28;20193;-67
2023/01/28 14:12:19;;;;;;;10.67;7.50;;;;;;;;;;5032090;28;20207;-67
2023/01/28 14:15:03;;;;;;;10.63;7.63;;;;;;;;;;5035995;28;20304;-67
2023/01/28 14:17:48;;;;;;;12.70;7.63;;;;;;;;;;5029901;28;20190;-67
2023/01/28 14:20:39;;;;;;;17.00;8.67;;;;;;;;;;5033518;28;20198;-68
2023/01/28 14:23:16;;;;;;;14.00;8.73;;;;;;;;;;5039006;28;20185;-68
2023/01/28 14:26:00;;;;;;;11.80;7.90;;;;;;;;;;5029072;28;20268;-67
2023/01/28 14:28:44;;;;;;;11.70;7.80;;;;;;;;;;5022851;28;20233;-68
2023/01/28 14:31:27;;;;;;;15.57;8.60;;;;;;;;;;5034201;28;20189;-67
2023/01/28 14:33:54;;;;;;;13.90;9.23;;;;;;;;;;5035576;28;20182;-67
2023/01/28 14:36:19;;;;;;;13.40;9.97;;;;;;;;;;5033509;28;20189;-68
2023/01/28 14:38:45;;;;;;;15.63;9.53;;;;;;;;;;5032062;28;20205;-67
2023/01/28 14:41:23;;;;;;;15.20;9.53;;;;;;;;;;5032491;28;20213;-68
2023/01/28 14:43:49;;;;;;;13.87;9.53;;;;;;;;;;5013446;28;20194;-67
2023/01/28 14:46:28;;;;;;;12.47;8.93;;;;;;;;;;5022652;28;20241;-67
2023/01/28 14:49:21;;;;;;;14.23;9.20;;;;;;;;;;5036067;28;20198;-68
2023/01/28 14:51:58;;;;;;;12.87;9.17;;;;;;;;;;5032269;28;20185;-68
2023/01/28 14:54:48;;;;;;;13.43;8.90;;;;;;;;;;5024093;28;20562;-67
2023/01/28 14:57:24;;;;;;;12.37;8.83;;;;;;;;;;5031381;28;20205;-68
2023/01/28 14:59:57;;;;;;;13.67;8.93;;;;;;;;;;5022198;28;20205;-68
2023/01/28 15:02:24;;;;;;;12.83;9.27;;;;;;;;;;5033133;28;20205;-67
2023/01/28 15:04:51;;;;;;;13.33;9.57;;;;;;;;;;5024367;28;20226;-68
2023/01/28 15:07:20;;;;;;;15.87;10.30;;;;;;;;;;5023752;28;20194;-67
2023/01/28 15:09:47;;;;;;;14.37;9.73;;;;;;;;;;5029104;28;21038;-67
2023/01/28 15:12:14;;;;;;;16.97;10.53;;;;;;;;;;5041359;28;20224;-67
2023/01/28 15:14:40;;;;;;;15.77;9.90;;;;;;;;;;5038384;28;20198;-67
2023/01/28 15:17:20;;;;;;;15.87;10.77;;;;;;;;;;5019605;28;20563;-67
2023/01/28 15:19:46;;;;;;;18.07;10.93;;;;;;;;;;5033981;28;20191;-68
2023/01/28 15:22:14;;;;;;;17.00;10.73;;;;;;;;;;5027870;28;20208;-67
2023/01/28 15:24:42;;;;;;;16.00;10.03;;;;;;;;;;5033167;28;20265;-66